Time;durP1;ratioP1;P1;durP2;ratioP2;P2;SDS_P1;SDS_P2;PMS_P1;PMS_P2;Temp;Humidity;BMP_temperature;BMP_pressure;BME280_temperature;BME280_humidity;BME280_pressure;Samples;Min_cycle;Max_cycle;Signal;HPM_P1;HPM_P2
2021/04/09 00:01:30;;;;;;;;;;;;;;;23.63;37.78;100726.19;4389839;32;35018;-56
2021/04/09 00:03:57;;;;;;;;;;;;;;;23.62;37.78;100728.09;4390444;32;34760;-60
2021/04/09 00:06:24;;;;;;;;;;;;;;;23.60;37.80;100727.47;4390300;32;33784;-60
2021/04/09 00:08:51;;;;;;;;;;;;;;;23.59;37.86;100728.47;4390196;32;34089;-58
2021/04/09 00:11:18;;;;;;;;;;;;;;;23.60;37.89;100734.81;4388456;32;34229;-60
2021/04/09 00:13:45;;;;;;;;;;;;;;;23.58;37.86;100732.25;4383973;32;34724;-61
2021/04/09 00:16:11;;;;;;;;;;;;;;;23.58;37.85;100731.41;4390971;32;34000;-56
2021/04/09 00:18:39;;;;;;;;;;;;;;;23.56;37.85;100737.09;4379325;32;34082;-61
2021/04/09 00:21:05;;;;;;;;;;;;;;;23.56;37.96;100737.09;4391326;32;34961;-61
2021/04/09 00:23:33;;;;;;;;;;;;;;;23.55;37.96;100734.53;4391354;32;34010;-55
2021/04/09 00:26:00;;;;;;;;;;;;;;;23.54;37.97;100733.72;4391926;32;33655;-57
2021/04/09 00:28:40;;;;;;;;;;;;;;;23.53;37.97;100732.03;4386905;32;34196;-57
2021/04/09 00:31:07;;;;;;;;;;;;;;;23.53;38.05;100733.94;4392055;32;35037;-58
2021/04/09 00:33:34;;;;;;;;;;;;;;;23.52;38.04;100735.81;4391977;32;34180;-60
2021/04/09 00:36:01;;;;;;;;;;;;;;;23.52;38.05;100732.25;4392664;32;33361;-60
2021/04/09 00:38:28;;;;;;;;;;;;;;;23.50;38.08;100728.87;4392331;32;33905;-59
2021/04/09 00:40:55;;;;;;;;;;;;;;;23.50;38.07;100728.87;4392693;32;34049;-60
2021/04/09 00:43:22;;;;;;;;;;;;;;;23.49;38.09;100735.37;4390106;32;34665;-62
2021/04/09 00:45:49;;;;;;;;;;;;;;;23.47;38.08;100730.12;4382913;32;34156;-59
2021/04/09 00:48:17;;;;;;;;;;;;;;;23.48;38.08;100739.16;4392625;32;34664;-59
2021/04/09 00:50:44;;;;;;;;;;;;;;;23.46;38.06;100735.81;4392196;32;34143;-60
2021/04/09 00:53:13;;;;;;;;;;;;;;;23.46;38.05;100731.19;4389930;32;34695;-58
2021/04/09 00:55:39;;;;;;;;;;;;;;;23.44;38.06;100727.81;4391834;32;33284;-58
2021/04/09 00:58:08;;;;;;;;;;;;;;;23.43;38.12;100732.44;4391842;32;32887;-61
2021/04/09 01:00:35;;;;;;;;;;;;;;;23.44;38.09;100730.53;4378988;32;33707;-62
2021/04/09 01:03:02;;;;;;;;;;;;;;;23.42;38.09;100727.19;4378162;32;33663;-60
2021/04/09 01:05:28;;;;;;;;;;;;;;;23.41;38.18;100731.81;4378591;32;33249;-61
2021/04/09 01:07:55;;;;;;;;;;;;;;;23.41;38.21;100734.53;4384286;32;34057;-60
2021/04/09 01:10:22;;;;;;;;;;;;;;;23.41;38.17;100736.41;4378689;32;34237;-60
2021/04/09 01:12:49;;;;;;;;;;;;;;;23.40;38.19;100735.53;4391542;32;34903;-59
2021/04/09 01:15:18;;;;;;;;;;;;;;;23.40;38.18;100731.97;4388554;32;34074;-61
2021/04/09 01:17:54;;;;;;;;;;;;;;;23.39;38.20;100731.16;4375008;32;34834;-61
2021/04/09 01:20:29;;;;;;;;;;;;;;;23.38;38.22;100732.19;4386269;32;34151;-60
2021/04/09 01:23:15;;;;;;;;;;;;;;;23.39;38.21;100722.13;4391659;32;33633;-60
2021/04/09 01:26:00;;;;;;;;;;;;;;;23.36;38.23;100717.97;4391130;32;33296;-60
2021/04/09 01:28:27;;;;;;;;;;;;;;;23.35;38.24;100723.59;4381318;32;34863;-60
2021/04/09 01:31:00;;;;;;;;;;;;;;;23.33;38.25;100729.25;4378846;32;34171;-58
2021/04/09 01:33:27;;;;;;;;;;;;;;;23.33;38.24;100721.09;4376742;32;34322;-61
2021/04/09 01:35:56;;;;;;;;;;;;;;;23.34;38.23;100719.19;4378841;32;34251;-61
2021/04/09 01:38:23;;;;;;;;;;;;;;;23.33;38.26;100717.53;4378115;32;34007;-61
2021/04/09 01:40:50;;;;;;;;;;;;;;;23.33;38.24;100714.78;4377803;32;34184;-59
2021/04/09 01:43:18;;;;;;;;;;;;;;;23.33;38.26;100720.25;4378240;32;34078;-59
2021/04/09 01:45:44;;;;;;;;;;;;;;;23.32;38.30;100715.84;4377359;32;33480;-60
2021/04/09 01:48:11;;;;;;;;;;;;;;;23.31;38.37;100717.69;4377756;32;34680;-60
2021/04/09 01:50:38;;;;;;;;;;;;;;;23.30;38.38;100715.19;4391706;32;33737;-58
2021/04/09 01:53:06;;;;;;;;;;;;;;;23.29;38.38;100708.91;4377343;32;34743;-60
2021/04/09 01:55:33;;;;;;;;;;;;;;;23.29;38.36;100716.25;4377736;32;33235;-61
2021/04/09 01:58:00;;;;;;;;;;;;;;;23.29;38.39;100716.25;4378068;32;33700;-56
2021/04/09 02:00:27;;;;;;;;;;;;;;;23.29;38.38;100713.53;4378049;32;34240;-60
2021/04/09 02:02:54;;;;;;;;;;;;;;;23.28;38.44;100720.00;4376548;32;34085;-61
2021/04/09 02:05:22;;;;;;;;;;;;;;;23.28;38.41;100717.28;4387698;32;33211;-58
2021/04/09 02:07:50;;;;;;;;;;;;;;;23.27;38.40;100718.31;4391732;32;35218;-61
2021/04/09 02:10:19;;;;;;;;;;;;;;;23.26;38.38;100714.75;4391971;32;34124;-57
2021/04/09 02:12:46;;;;;;;;;;;;;;;23.25;38.40;100710.34;4391529;32;33668;-60
2021/04/09 02:15:14;;;;;;;;;;;;;;;23.26;38.40;100713.91;4373453;32;33988;-59
2021/04/09 02:17:41;;;;;;;;;;;;;;;23.24;38.46;100714.13;4378549;32;33655;-60
2021/04/09 02:20:09;;;;;;;;;;;;;;;23.24;38.46;100702.41;4377993;32;34133;-58
2021/04/09 02:22:35;;;;;;;;;;;;;;;23.24;38.42;100710.56;4392034;32;34261;-60
2021/04/09 02:25:02;;;;;;;;;;;;;;;23.23;38.45;100708.91;4376610;32;33512;-60
2021/04/09 02:27:29;;;;;;;;;;;;;;;23.22;38.42;100707.19;4392151;32;34118;-60
2021/04/09 02:29:56;;;;;;;;;;;;;;;23.22;38.45;100710.75;4391554;32;34185;-60
2021/04/09 02:32:23;;;;;;;;;;;;;;;23.21;38.44;100709.06;4391827;32;34206;-60
2021/04/09 02:34:51;;;;;;;;;;;;;;;23.21;38.50;100710.97;4383665;32;33220;-58
2021/04/09 02:37:19;;;;;;;;;;;;;;;23.21;38.46;100719.13;4377120;32;33781;-61
2021/04/09 02:39:47;;;;;;;;;;;;;;;23.19;38.43;100711.19;4388849;32;34085;-61
2021/04/09 02:42:14;;;;;;;;;;;;;;;23.19;38.48;100713.06;4391883;32;34826;-60
2021/04/09 02:44:41;;;;;;;;;;;;;;;23.19;38.42;100715.78;4382037;32;32939;-61
2021/04/09 02:47:17;;;;;;;;;;;;;;;23.19;38.46;100718.50;4376491;32;33722;-59
2021/04/09 02:49:46;;;;;;;;;;;;;;;23.19;38.42;100721.22;4385542;32;34082;-59
2021/04/09 02:52:13;;;;;;;;;;;;;;;23.16;38.46;100717.84;4391841;32;33616;-60
2021/04/09 02:54:40;;;;;;;;;;;;;;;23.16;38.56;100712.41;4376854;32;33351;-58
2021/04/09 02:57:08;;;;;;;;;;;;;;;23.15;38.55;100710.75;4391962;32;34895;-60
2021/04/09 02:59:35;;;;;;;;;;;;;;;23.16;38.53;100717.03;4390967;32;33814;-57
2021/04/09 03:02:02;;;;;;;;;;;;;;;23.16;38.46;100719.75;4391903;32;34670;-61
2021/04/09 03:04:29;;;;;;;;;;;;;;;23.15;38.56;100720.78;4372251;32;33260;-60
2021/04/09 03:06:56;;;;;;;;;;;;;;;23.14;38.52;100725.41;4363400;32;34038;-60
2021/04/09 03:09:23;;;;;;;;;;;;;;;23.14;38.59;100725.41;4386451;32;34115;-53
2021/04/09 03:11:50;;;;;;;;;;;;;;;23.13;38.59;100736.50;4391614;32;34399;-59
2021/04/09 03:14:18;;;;;;;;;;;;;;;23.13;38.54;100728.34;4383927;32;34230;-58
2021/04/09 03:16:58;;;;;;;;;;;;;;;23.12;38.59;100724.75;4390951;32;34172;-59
2021/04/09 03:19:25;;;;;;;;;;;;;;;23.13;38.54;100726.44;4391224;32;34959;-60
2021/04/09 03:21:52;;;;;;;;;;;;;;;23.12;38.62;100727.47;4391504;32;33678;-60
2021/04/09 03:24:19;;;;;;;;;;;;;;;23.12;38.56;100732.06;4390544;32;33965;-60
2021/04/09 03:26:46;;;;;;;;;;;;;;;23.12;38.54;100738.34;4391887;32;33685;-54
2021/04/09 03:29:13;;;;;;;;;;;;;;;23.11;38.66;100724.97;4390649;32;34975;-58
2021/04/09 03:31:39;;;;;;;;;;;;;;;23.09;38.57;100733.34;4391521;32;33729;-61
2021/04/09 03:34:06;;;;;;;;;;;;;;;23.08;38.58;100725.34;4388714;32;34062;-58
2021/04/09 03:36:33;;;;;;;;;;;;;;;23.09;38.54;100727.06;4376027;32;34166;-58
2021/04/09 03:39:00;;;;;;;;;;;;;;;23.08;38.54;100725.34;4383911;32;33996;-60
2021/04/09 03:41:27;;;;;;;;;;;;;;;23.07;38.48;100734.56;4391386;32;34001;-56
2021/04/09 03:44:10;;;;;;;;;;;;;;;23.07;38.49;100731.84;4389873;32;33316;-60
2021/04/09 03:46:37;;;;;;;;;;;;;;;23.07;38.49;100734.56;4391010;32;34791;-60
2021/04/09 03:49:04;;;;;;;;;;;;;;;23.05;38.52;100737.50;4390513;32;34111;-59
2021/04/09 03:51:31;;;;;;;;;;;;;;;23.05;38.46;100734.78;4391022;32;34104;-58
2021/04/09 03:53:58;;;;;;;;;;;;;;;23.05;38.53;100733.94;4381238;32;33248;-60
2021/04/09 03:56:25;;;;;;;;;;;;;;;23.05;38.56;100728.50;4391910;32;34877;-61
2021/04/09 03:58:52;;;;;;;;;;;;;;;23.04;38.68;100732.25;4392315;32;33644;-61
2021/04/09 04:01:19;;;;;;;;;;;;;;;23.03;38.71;100731.41;4392970;32;33683;-60
2021/04/09 04:03:49;;;;;;;;;;;;;;;23.03;38.69;100731.41;4383694;32;33570;-60
2021/04/09 04:06:16;;;;;;;;;;;;;;;23.02;38.65;100729.72;4377741;32;35742;-60
2021/04/09 04:08:42;;;;;;;;;;;;;;;23.02;38.70;100731.59;4386396;32;34198;-59
2021/04/09 04:11:09;;;;;;;;;;;;;;;23.02;38.69;100737.06;4392985;32;34303;-60
2021/04/09 04:13:36;;;;;;;;;;;;;;;23.01;38.68;100736.22;4391265;32;33978;-58
2021/04/09 04:16:03;;;;;;;;;;;;;;;23.01;38.70;100735.37;4391555;32;34183;-58
2021/04/09 04:18:30;;;;;;;;;;;;;;;23.00;38.69;100730.97;4385749;32;34270;-58
2021/04/09 04:20:57;;;;;;;;;;;;;;;23.00;38.68;100737.25;4392193;32;34497;-59
2021/04/09 04:23:24;;;;;;;;;;;;;;;23.01;38.70;100740.81;4392116;32;33170;-58
2021/04/09 04:25:52;;;;;;;;;;;;;;;22.99;38.77;100738.31;4392228;32;34059;-59
2021/04/09 04:28:19;;;;;;;;;;;;;;;22.98;38.69;100736.59;4392717;32;34137;-60
2021/04/09 04:30:50;;;;;;;;;;;;;;;22.98;38.75;100739.31;4392170;32;34028;-54
2021/04/09 04:33:17;;;;;;;;;;;;;;;22.98;38.71;100750.22;4394936;32;33301;-58
2021/04/09 04:35:44;;;;;;;;;;;;;;;22.98;38.70;100739.31;4407668;32;35396;-57
2021/04/09 04:38:11;;;;;;;;;;;;;;;22.98;38.77;100738.50;4402842;32;34838;-59
2021/04/09 04:40:38;;;;;;;;;;;;;;;22.97;38.81;100740.38;4392140;32;34182;-53
2021/04/09 04:43:06;;;;;;;;;;;;;;;22.97;38.77;100744.97;4397397;32;33923;-52
2021/04/09 04:45:33;;;;;;;;;;;;;;;22.96;38.75;100744.16;4383046;32;34076;-58
2021/04/09 04:48:00;;;;;;;;;;;;;;;22.96;38.73;100749.59;4400616;32;34922;-54
2021/04/09 04:50:27;;;;;;;;;;;;;;;22.96;38.75;100765.91;4407498;32;34227;-59
2021/04/09 04:52:53;;;;;;;;;;;;;;;22.96;38.78;100759.63;4394853;32;33956;-59
2021/04/09 04:55:20;;;;;;;;;;;;;;;22.95;38.80;100753.38;4392806;32;34716;-52
2021/04/09 04:57:47;;;;;;;;;;;;;;;22.96;38.80;100765.09;4398369;32;35003;-55
2021/04/09 05:00:14;;;;;;;;;;;;;;;22.94;38.75;100757.09;4391798;32;34207;-53
2021/04/09 05:02:41;;;;;;;;;;;;;;;22.94;38.74;100759.81;4397622;32;33393;-54
2021/04/09 05:05:09;;;;;;;;;;;;;;;22.95;38.83;100768.84;4391624;32;32995;-57
2021/04/09 05:07:35;;;;;;;;;;;;;;;22.93;38.75;100766.31;4398025;32;34104;-58
2021/04/09 05:10:04;;;;;;;;;;;;;;;22.93;38.83;100766.31;4399673;32;33674;-53
2021/04/09 05:12:30;;;;;;;;;;;;;;;22.94;38.83;100769.88;4396225;32;34218;-55
2021/04/09 05:14:57;;;;;;;;;;;;;;;22.94;38.85;100767.16;4399783;32;34272;-57
2021/04/09 05:17:24;;;;;;;;;;;;;;;22.93;38.82;100766.31;4397496;32;33021;-57
2021/04/09 05:19:51;;;;;;;;;;;;;;;22.93;38.80;100774.47;4398975;32;35385;-55
2021/04/09 05:22:18;;;;;;;;;;;;;;;22.92;38.86;100770.06;4396968;32;33260;-59
2021/04/09 05:24:45;;;;;;;;;;;;;;;22.91;38.87;100769.25;4396290;32;34132;-56
2021/04/09 05:27:12;;;;;;;;;;;;;;;22.91;38.79;100771.12;4397043;32;34289;-58
2021/04/09 05:29:39;;;;;;;;;;;;;;;22.90;38.85;100769.44;4399441;32;34729;-59
2021/04/09 05:32:07;;;;;;;;;;;;;;;22.92;38.62;100776.34;4398342;32;33367;-57
2021/04/09 05:34:34;;;;;;;;;;;;;;;22.94;38.55;100783.47;4398335;32;34805;-58
2021/04/09 05:37:01;;;;;;;;;;;;;;;22.92;38.64;100781.81;4397995;32;34255;-60
2021/04/09 05:39:28;;;;;;;;;;;;;;;22.91;38.62;100785.56;4398373;32;34250;-60
2021/04/09 05:41:55;;;;;;;;;;;;;;;22.89;38.51;100786.78;4397091;32;33435;-59
2021/04/09 05:44:21;;;;;;;;;;;;;;;22.90;38.46;100786.63;4391323;32;33829;-58
2021/04/09 05:46:48;;;;;;;;;;;;;;;22.91;38.36;100788.28;4393476;32;34209;-59
2021/04/09 05:49:16;;;;;;;;;;;;;;;22.91;38.47;100787.47;4391168;32;35176;-58
2021/04/09 05:51:43;;;;;;;;;;;;;;;22.91;38.59;100790.19;4392107;32;33102;-58
2021/04/09 05:54:10;;;;;;;;;;;;;;;22.90;38.38;100789.34;4391847;32;34051;-59
2021/04/09 05:56:37;;;;;;;;;;;;;;;22.92;38.71;100786.41;4391826;32;34831;-59
2021/04/09 05:59:04;;;;;;;;;;;;;;;22.91;38.62;100791.00;4379851;32;34746;-59
2021/04/09 06:01:31;;;;;;;;;;;;;;;22.93;38.59;100790.81;4387502;32;33216;-58
2021/04/09 06:03:58;;;;;;;;;;;;;;;22.92;38.55;100789.97;4391782;32;34044;-60
2021/04/09 06:06:25;;;;;;;;;;;;;;;22.92;38.56;100786.41;4391977;32;34085;-59
2021/04/09 06:08:51;;;;;;;;;;;;;;;22.94;38.63;100787.03;4382099;32;34873;-65
2021/04/09 06:11:19;;;;;;;;;;;;;;;22.90;38.60;100792.06;4376662;32;33245;-58
2021/04/09 06:13:45;;;;;;;;;;;;;;;22.91;38.64;100788.28;4376591;32;34250;-58
2021/04/09 06:16:12;;;;;;;;;;;;;;;22.94;38.49;100783.47;4378059;32;35104;-59
2021/04/09 06:18:39;;;;;;;;;;;;;;;22.92;38.53;100789.13;4390277;32;33734;-59
2021/04/09 06:21:06;;;;;;;;;;;;;;;22.93;38.63;100793.53;4391899;32;34194;-59
2021/04/09 06:23:33;;;;;;;;;;;;;;;22.93;38.55;100785.34;4392634;32;34143;-59
2021/04/09 06:26:00;;;;;;;;;;;;;;;22.96;38.56;100792.31;4392657;32;33705;-58
2021/04/09 06:28:27;;;;;;;;;;;;;;;22.94;38.51;100797.91;4391890;32;34310;-58
2021/04/09 06:30:53;;;;;;;;;;;;;;;22.94;38.82;100786.19;4385568;32;33447;-58
2021/04/09 06:33:20;;;;;;;;;;;;;;;22.94;38.59;100791.62;4376781;32;34024;-58
2021/04/09 06:35:47;;;;;;;;;;;;;;;22.95;38.72;100785.19;4386836;32;34734;-57
2021/04/09 06:38:14;;;;;;;;;;;;;;;22.95;38.69;100786.03;4391567;32;34137;-56
2021/04/09 06:40:41;;;;;;;;;;;;;;;22.95;38.72;100786.03;4383484;32;33358;-58
2021/04/09 06:43:08;;;;;;;;;;;;;;;22.95;38.73;100783.31;4393875;32;33869;-59
2021/04/09 06:45:35;;;;;;;;;;;;;;;22.95;38.62;100785.19;4379298;32;34035;-58
2021/04/09 06:48:02;;;;;;;;;;;;;;;22.95;38.58;100785.19;4391943;32;33734;-58
2021/04/09 06:50:30;;;;;;;;;;;;;;;22.95;38.76;100787.91;4375423;32;33763;-60
2021/04/09 06:52:56;;;;;;;;;;;;;;;22.94;38.71;100788.91;4389456;32;34861;-57
2021/04/09 06:55:23;;;;;;;;;;;;;;;22.94;38.63;100792.47;4383055;32;34153;-58
2021/04/09 06:57:52;;;;;;;;;;;;;;;22.93;38.61;100790.81;4393111;32;33924;-58
2021/04/09 07:00:23;;;;;;;;;;;;;;;22.93;38.57;100798.97;4401515;32;33777;-57
2021/04/09 07:02:50;;;;;;;;;;;;;;;22.92;38.63;100795.41;4395509;32;34647;-58
2021/04/09 07:05:17;;;;;;;;;;;;;;;22.94;38.60;100794.38;4395829;32;34530;-58
2021/04/09 07:07:44;;;;;;;;;;;;;;;22.94;38.58;100800.66;4405415;32;34632;-58
2021/04/09 07:10:11;;;;;;;;;;;;;;;22.94;38.54;100802.53;4395540;32;33973;-58
2021/04/09 07:12:38;;;;;;;;;;;;;;;22.93;38.60;100798.97;4386473;32;34189;-57
2021/04/09 07:15:05;;;;;;;;;;;;;;;22.95;38.67;100796.06;4389504;32;34069;-57
2021/04/09 07:17:34;;;;;;;;;;;;;;;22.94;38.63;100799.81;4395443;32;34306;-60
2021/04/09 07:20:07;;;;;;;;;;;;;;;22.94;38.64;100800.66;4390010;32;33636;-58
2021/04/09 07:22:34;;;;;;;;;;;;;;;22.94;38.53;100794.38;4390053;32;34899;-58
2021/04/09 07:25:08;;;;;;;;;;;;;;;22.92;38.52;100795.41;4406606;32;34142;-59
2021/04/09 07:27:36;;;;;;;;;;;;;;;22.91;38.54;100801.91;4398063;32;34176;-59
2021/04/09 07:30:04;;;;;;;;;;;;;;;22.90;38.58;100800.22;4373570;32;33684;-59
2021/04/09 07:32:32;;;;;;;;;;;;;;;22.89;38.38;100800.41;4390461;32;34050;-58
2021/04/09 07:35:03;;;;;;;;;;;;;;;22.89;38.43;100798.53;4391233;32;33899;-59
2021/04/09 07:37:31;;;;;;;;;;;;;;;22.90;38.44;100793.94;4376446;32;33905;-57
2021/04/09 07:40:02;;;;;;;;;;;;;;;22.89;38.43;100786.78;4395299;32;33074;-59
2021/04/09 07:42:31;;;;;;;;;;;;;;;22.91;38.42;100795.63;4399485;32;34354;-56
2021/04/09 07:44:59;;;;;;;;;;;;;;;22.89;38.23;100789.50;4390933;32;34156;-59
2021/04/09 07:47:26;;;;;;;;;;;;;;;22.89;38.00;100793.06;4391045;32;34817;-59
2021/04/09 07:50:04;;;;;;;;;;;;;;;22.89;37.94;100784.06;4391191;32;33303;-59
2021/04/09 07:52:48;;;;;;;;;;;;;;;22.89;38.07;100793.06;4391102;32;34798;-56
2021/04/09 07:55:20;;;;;;;;;;;;;;;22.88;37.97;100780.47;4390881;32;34893;-59
2021/04/09 07:57:47;;;;;;;;;;;;;;;22.88;37.93;100791.38;4390769;32;34810;-59
2021/04/09 08:00:18;;;;;;;;;;;;;;;22.88;38.08;100787.81;4390925;32;32885;-59
2021/04/09 08:02:45;;;;;;;;;;;;;;;22.88;38.04;100791.38;4390820;32;34099;-60
2021/04/09 08:05:13;;;;;;;;;;;;;;;22.89;38.00;100790.34;4390693;32;33767;-58
2021/04/09 08:07:41;;;;;;;;;;;;;;;22.89;38.05;100778.63;4393095;32;33912;-58
2021/04/09 08:10:11;;;;;;;;;;;;;;;22.89;38.08;100784.91;4403658;32;33048;-58
2021/04/09 08:12:38;;;;;;;;;;;;;;;22.90;38.17;100786.63;4398422;32;34985;-59
2021/04/09 08:15:23;;;;;;;;;;;;;;;22.89;38.21;100782.19;4390680;32;34998;-58
2021/04/09 08:17:57;;;;;;;;;;;;;;;22.88;38.11;100783.19;4390443;32;33926;-58
2021/04/09 08:20:24;;;;;;;;;;;;;;;22.90;38.27;100783.06;4390549;32;33747;-58
2021/04/09 08:22:51;;;;;;;;;;;;;;;22.90;38.28;100792.06;4390363;32;33798;-58
2021/04/09 08:25:18;;;;;;;;;;;;;;;22.91;38.28;100785.56;4381368;32;33862;-58
2021/04/09 08:27:45;;;;;;;;;;;;;;;22.91;38.22;100782.84;4376320;32;33941;-58
2021/04/09 08:30:12;;;;;;;;;;;;;;;22.91;38.32;100768.41;4405619;32;33371;-58
2021/04/09 08:32:39;;;;;;;;;;;;;;;22.92;38.38;100775.53;4396247;32;34142;-58
2021/04/09 08:35:08;;;;;;;;;;;;;;;22.92;38.43;100783.69;4390308;32;34874;-56
2021/04/09 08:37:35;;;;;;;;;;;;;;;22.91;38.42;100773.84;4383855;32;33592;-59
2021/04/09 08:40:03;;;;;;;;;;;;;;;22.92;38.40;100770.06;4381417;32;33243;-56
2021/04/09 08:42:33;;;;;;;;;;;;;;;22.91;38.30;100774.69;4406644;32;34130;-58
2021/04/09 08:45:01;;;;;;;;;;;;;;;22.92;38.46;100772.81;4401315;32;34084;-57
2021/04/09 08:47:29;;;;;;;;;;;;;;;22.91;38.27;100769.25;4392532;32;34673;-57
2021/04/09 08:49:59;;;;;;;;;;;;;;;22.91;38.41;100776.56;4392764;32;34107;-59
2021/04/09 08:52:26;;;;;;;;;;;;;;;22.91;38.33;100771.97;4392521;32;34190;-59
2021/04/09 08:54:56;;;;;;;;;;;;;;;22.90;38.44;100762.13;4378885;32;34092;-59
2021/04/09 08:57:27;;;;;;;;;;;;;;;22.91;38.33;100766.53;4400133;32;35008;-58
2021/04/09 09:00:02;;;;;;;;;;;;;;;22.90;38.37;100764.00;4407411;32;34240;-58
2021/04/09 09:02:37;;;;;;;;;;;;;;;22.90;38.54;100762.13;4407732;32;34909;-58
2021/04/09 09:05:06;;;;;;;;;;;;;;;22.90;38.48;100762.13;4407720;32;35566;-59
2021/04/09 09:07:48;;;;;;;;;;;;;;;22.90;38.54;100756.69;4407657;32;34154;-58
2021/04/09 09:10:21;;;;;;;;;;;;;;;22.91;38.53;100752.06;4407558;32;33359;-57
2021/04/09 09:13:07;;;;;;;;;;;;;;;22.90;38.58;100753.13;4407582;32;34068;-59
2021/04/09 09:15:53;;;;;;;;;;;;;;;22.90;38.63;100747.69;4406261;32;33668;-58
2021/04/09 09:18:23;;;;;;;;;;;;;;;22.90;38.60;100748.50;4407539;32;34129;-58
2021/04/09 09:21:00;;;;;;;;;;;;;;;22.90;38.54;100744.97;4407382;32;33320;-57
2021/04/09 09:23:42;;;;;;;;;;;;;;;22.90;38.61;100739.50;4407643;32;34915;-59
2021/04/09 09:26:16;;;;;;;;;;;;;;;22.90;38.62;100739.50;4392896;32;35007;-58
2021/04/09 09:28:47;;;;;;;;;;;;;;;22.89;38.46;100732.37;4392103;32;34034;-58
2021/04/09 09:31:29;;;;;;;;;;;;;;;22.90;38.66;100728.63;4377934;32;34008;-58
2021/04/09 09:34:15;;;;;;;;;;;;;;;22.90;38.57;100720.47;4392393;32;34024;-59
2021/04/09 09:37:00;;;;;;;;;;;;;;;22.89;38.65;100721.47;4407434;32;33732;-59
2021/04/09 09:39:36;;;;;;;;;;;;;;;22.88;38.74;100719.78;4407311;32;34237;-58
2021/04/09 09:42:06;;;;;;;;;;;;;;;22.88;38.69;100717.88;4407379;32;34464;-56
2021/04/09 09:44:43;;;;;;;;;;;;;;;22.89;38.73;100707.87;4407361;32;34163;-59
2021/04/09 09:47:13;;;;;;;;;;;;;;;22.89;38.67;100716.03;4407245;32;34174;-58
2021/04/09 09:49:41;;;;;;;;;;;;;;;22.89;38.62;100703.28;4407263;32;34375;-59
2021/04/09 09:52:21;;;;;;;;;;;;;;;22.88;38.58;100698.84;4406113;32;34833;-56
2021/04/09 09:55:21;;;;;;;;;;;;;;;22.89;38.58;100703.28;4407235;32;33630;-59
2021/04/09 09:57:48;;;;;;;;;;;;;;;22.89;38.68;100686.94;4381209;32;34178;-59
2021/04/09 10:00:24;;;;;;;;;;;;;;;22.89;38.67;100694.28;4407224;32;34017;-57
2021/04/09 10:02:51;;;;;;;;;;;;;;;22.89;38.65;100684.22;4407167;32;32790;-60
2021/04/09 10:05:18;;;;;;;;;;;;;;;22.88;38.71;100668.06;4406106;32;34812;-59
2021/04/09 10:07:45;;;;;;;;;;;;;;;22.89;38.67;100669.78;4406009;32;35344;-59
2021/04/09 10:10:22;;;;;;;;;;;;;;;22.89;38.66;100672.50;4407195;32;34794;-60
2021/04/09 10:12:48;;;;;;;;;;;;;;;22.88;38.74;100663.47;4407158;32;33417;-59
2021/04/09 10:15:25;;;;;;;;;;;;;;;22.90;38.74;100663.31;4405530;32;34181;-58
2021/04/09 10:18:07;;;;;;;;;;;;;;;22.89;38.72;100648.84;4407191;32;34529;-59
2021/04/09 10:20:34;;;;;;;;;;;;;;;22.90;38.72;100644.28;4407479;32;34879;-57
2021/04/09 10:23:01;;;;;;;;;;;;;;;22.89;38.74;100635.25;4407040;32;33309;-57
2021/04/09 10:25:29;;;;;;;;;;;;;;;22.89;38.84;100637.13;4397091;32;34196;-58
2021/04/09 10:27:55;;;;;;;;;;;;;;;22.89;38.85;100635.25;4392051;32;33840;-59
2021/04/09 10:30:27;;;;;;;;;;;;;;;22.90;38.69;100631.50;4378344;32;35455;-57
2021/04/09 10:32:54;;;;;;;;;;;;;;;22.91;38.60;100633.16;4393114;32;33292;-59
2021/04/09 10:35:24;;;;;;;;;;;;;;;22.91;38.65;100619.56;4405695;32;34107;-58
2021/04/09 10:37:52;;;;;;;;;;;;;;;22.91;38.82;100630.44;4407114;32;33882;-60
2021/04/09 10:40:18;;;;;;;;;;;;;;;22.90;38.77;100619.78;4405542;32;34259;-59
2021/04/09 10:42:58;;;;;;;;;;;;;;;22.91;38.76;100621.44;4407067;32;34262;-59
2021/04/09 10:45:25;;;;;;;;;;;;;;;22.90;38.76;100603.44;4406918;32;34077;-59
2021/04/09 10:47:53;;;;;;;;;;;;;;;22.90;38.55;100609.72;4407106;32;34917;-58
2021/04/09 10:50:20;;;;;;;;;;;;;;;22.90;38.44;100611.62;4392469;32;34981;-58
2021/04/09 10:52:47;;;;;;;;;;;;;;;22.88;38.51;100600.88;4391779;32;33988;-58
2021/04/09 10:55:14;;;;;;;;;;;;;;;22.90;38.47;100614.34;4392012;32;34923;-55
2021/04/09 10:57:40;;;;;;;;;;;;;;;22.89;38.54;100599.84;4391759;32;33887;-57
2021/04/09 11:00:08;;;;;;;;;;;;;;;22.90;38.61;100589.84;4391794;32;33755;-58
2021/04/09 11:02:36;;;;;;;;;;;;;;;22.90;38.65;100579.78;4391804;32;33695;-58
2021/04/09 11:05:03;;;;;;;;;;;;;;;22.90;38.66;100590.69;4377112;32;35498;-59
2021/04/09 11:07:43;;;;;;;;;;;;;;;22.90;38.68;100571.63;4391690;32;34193;-57
2021/04/09 11:10:29;;;;;;;;;;;;;;;22.89;38.74;100569.09;4391769;32;34099;-59
2021/04/09 11:12:56;;;;;;;;;;;;;;;22.89;38.69;100560.94;4391625;32;32865;-59
2021/04/09 11:15:23;;;;;;;;;;;;;;;22.89;38.78;100571.81;4391493;32;33878;-58
2021/04/09 11:17:54;;;;;;;;;;;;;;;22.89;38.78;100567.22;4391503;32;33948;-59
2021/04/09 11:20:25;;;;;;;;;;;;;;;22.89;38.74;100561.75;4391813;32;34078;-59
2021/04/09 11:23:00;;;;;;;;;;;;;;;22.88;38.81;100556.50;4391372;32;32995;-59
2021/04/09 11:25:31;;;;;;;;;;;;;;;22.89;38.75;100566.37;4391498;32;34205;-58
2021/04/09 11:27:58;;;;;;;;;;;;;;;22.87;38.78;100555.66;4391292;32;34649;-59
2021/04/09 11:30:25;;;;;;;;;;;;;;;22.87;38.86;100550.22;4368430;32;34226;-58
2021/04/09 11:32:52;;;;;;;;;;;;;;;22.88;38.87;100540.19;4368030;32;33292;-56
2021/04/09 11:35:20;;;;;;;;;;;;;;;22.88;38.79;100537.44;4391211;32;34210;-59
2021/04/09 11:37:47;;;;;;;;;;;;;;;22.87;38.77;100533.91;4391185;32;34263;-60
2021/04/09 11:40:15;;;;;;;;;;;;;;;22.87;38.86;100533.06;4377689;32;32353;-59
2021/04/09 11:42:42;;;;;;;;;;;;;;;22.89;38.81;100533.72;4391552;32;34089;-58
2021/04/09 11:45:11;;;;;;;;;;;;;;;22.87;38.86;100522.19;4391254;32;35581;-56
2021/04/09 11:47:39;;;;;;;;;;;;;;;22.88;38.66;100524.69;4391210;32;34327;-57
2021/04/09 11:50:09;;;;;;;;;;;;;;;22.88;38.64;100518.41;4391192;32;34868;-58
2021/04/09 11:52:54;;;;;;;;;;;;;;;22.86;38.40;100505.00;4391197;32;33225;-58
2021/04/09 11:55:25;;;;;;;;;;;;;;;22.86;38.52;100509.62;4391094;32;34863;-57
2021/04/09 11:57:52;;;;;;;;;;;;;;;22.83;38.57;100510.03;4391289;32;34732;-59
2021/04/09 12:00:27;;;;;;;;;;;;;;;22.82;38.57;100505.63;4391056;32;34632;-57
2021/04/09 12:02:54;;;;;;;;;;;;;;;22.81;38.55;100506.69;4390965;32;34004;-60
2021/04/09 12:05:21;;;;;;;;;;;;;;;22.79;38.54;100500.59;4391243;32;34104;-54
2021/04/09 12:07:48;;;;;;;;;;;;;;;22.77;38.55;100502.69;4390970;32;34843;-57
2021/04/09 12:10:15;;;;;;;;;;;;;;;22.76;38.53;100503.75;4390882;32;33648;-59
2021/04/09 12:12:42;;;;;;;;;;;;;;;22.75;38.53;100483.00;4390857;32;33977;-58
2021/04/09 12:15:09;;;;;;;;;;;;;;;22.73;38.44;100476.94;4390918;32;33764;-60
2021/04/09 12:17:36;;;;;;;;;;;;;;;22.74;38.32;100474.00;4387725;32;35029;-59
2021/04/09 12:20:06;;;;;;;;;;;;;;;22.77;38.30;100486.38;4392599;32;33959;-56
2021/04/09 12:22:33;;;;;;;;;;;;;;;22.77;38.20;100470.87;4372673;32;33485;-58
2021/04/09 12:25:01;;;;;;;;;;;;;;;22.77;38.28;100454.56;4392399;32;34194;-57
2021/04/09 12:27:28;;;;;;;;;;;;;;;22.77;38.16;100468.16;4392868;32;34598;-59
2021/04/09 12:29:54;;;;;;;;;;;;;;;22.79;38.28;100466.06;4393039;32;34835;-58
2021/04/09 12:32:22;;;;;;;;;;;;;;;22.79;38.31;100446.19;4392554;32;33305;-59
2021/04/09 12:34:49;;;;;;;;;;;;;;;22.79;38.33;100449.72;4390259;32;34251;-60
2021/04/09 12:37:17;;;;;;;;;;;;;;;22.79;38.36;100435.28;4384503;32;34118;-59
2021/04/09 12:39:44;;;;;;;;;;;;;;;22.76;38.26;100443.87;4392509;32;34629;-59
2021/04/09 12:42:11;;;;;;;;;;;;;;;22.77;38.25;100423.78;4381796;32;33294;-58
2021/04/09 12:44:38;;;;;;;;;;;;;;;22.77;38.33;100415.63;4377391;32;33777;-54